Time;durP1;ratioP1;P1;durP2;ratioP2;P2;SDS_P1;SDS_P2;PMS_P1;PMS_P2;Temp;Humidity;BMP_temperature;BMP_pressure;BME280_temperature;BME280_humidity;BME280_pressure;Samples;Min_cycle;Max_cycle;Signal;HPM_P1;HPM_P2
2023/06/09 00:01:12;;;;;;;13.63;6.95;;;19.20;99.90;;;19.57;66.71;101426.19;4937111;29;20055;-58
2023/06/09 00:03:40;;;;;;;13.98;7.30;;;19.20;99.90;;;19.42;66.74;101424.00;4937374;29;20497;-58
2023/06/09 00:06:12;;;;;;;15.80;6.75;;;19.10;99.90;;;19.48;66.83;101410.41;4937044;29;20493;-59
2023/06/09 00:08:41;;;;;;;23.75;6.68;;;19.10;99.90;;;19.41;66.87;101412.44;4933980;29;20193;-58
2023/06/09 00:11:10;;;;;;;15.32;6.82;;;19.10;99.90;;;19.46;67.13;101414.94;4936868;29;20548;-61
2023/06/09 00:13:38;;;;;;;15.80;6.95;;;19.10;99.90;;;19.34;66.89;101416.22;4937092;29;20071;-60
2023/06/09 00:16:06;;;;;;;16.02;6.85;;;19.00;99.90;;;19.38;67.07;101408.94;4937124;29;20489;-59
2023/06/09 00:18:35;;;;;;;12.98;6.35;;;19.00;99.90;;;19.39;67.09;101408.03;4936729;29;20078;-59
2023/06/09 00:21:04;;;;;;;14.30;6.95;;;19.10;99.90;;;19.46;67.38;101417.63;4943921;29;20067;-59
2023/06/09 00:23:34;;;;;;;14.18;7.20;;;19.00;99.90;;;19.45;66.93;101399.78;4936722;29;20055;-59
2023/06/09 00:26:03;;;;;;;18.23;7.45;;;19.10;99.90;;;19.34;66.91;101416.22;4936593;29;20047;-58
2023/06/09 00:28:31;;;;;;;20.48;8.93;;;19.10;99.90;;;19.23;67.10;101412.97;4933154;29;20417;-60
2023/06/09 00:31:01;;;;;;;17.15;6.82;;;18.90;99.90;;;19.15;67.59;101400.69;4936990;29;20052;-58
2023/06/09 00:33:29;;;;;;;15.63;6.82;;;18.80;99.90;;;19.12;67.70;101396.31;4936547;29;20047;-59
2023/06/09 00:35:58;;;;;;;19.20;7.80;;;18.80;99.90;;;19.17;67.87;101402.41;4936595;29;20044;-59
2023/06/09 00:38:26;;;;;;;23.00;7.13;;;18.80;99.90;;;19.21;68.06;101397.81;4936393;29;20070;-60
2023/06/09 00:40:56;;;;;;;14.57;6.88;;;18.80;99.90;;;19.27;67.64;101400.31;4935330;29;20040;-59
2023/06/09 00:43:24;;;;;;;17.53;8.40;;;18.90;99.90;;;19.24;67.50;101395.06;4935923;29;20058;-59
2023/06/09 00:45:53;;;;;;;16.52;6.78;;;18.90;99.90;;;19.26;67.27;101396.75;4934744;29;20513;-59
2023/06/09 00:48:22;;;;;;;16.50;7.22;;;18.90;99.90;;;19.14;67.39;101404.31;4936315;29;20056;-58
2023/06/09 00:50:50;;;;;;;16.85;7.55;;;18.80;99.90;;;19.15;67.46;101392.66;4936213;29;20052;-59
2023/06/09 00:53:19;;;;;;;17.60;7.30;;;18.80;99.90;;;19.13;67.55;101390.03;4944729;29;20442;-59
2023/06/09 00:55:47;;;;;;;15.20;7.28;;;18.80;99.90;;;19.10;67.69;101399.97;4936559;29;20043;-59
2023/06/09 00:58:18;;;;;;;13.25;6.95;;;18.80;99.90;;;19.02;67.92;101402.00;4936502;29;20051;-58
2023/06/09 01:00:46;;;;;;;15.38;7.30;;;18.60;99.90;;;18.93;68.22;101379.91;4936131;29;20103;-59
2023/06/09 01:03:14;;;;;;;18.27;7.68;;;18.70;99.90;;;19.04;68.30;101397.47;4927153;29;20087;-59
2023/06/09 01:05:44;;;;;;;17.60;7.05;;;18.70;99.90;;;19.07;68.07;101405.41;4934843;29;20058;-59
2023/06/09 01:08:22;;;;;;;15.63;7.55;;;18.70;99.90;;;18.96;68.14;101400.41;4935900;29;20051;-61
2023/06/09 01:11:01;;;;;;;16.33;6.90;;;18.70;99.90;;;18.95;68.22;101377.16;4932935;29;20055;-59
2023/06/09 01:13:49;;;;;;;19.45;6.70;;;18.60;99.90;;;19.00;68.17;101391.34;4934344;29;20402;-59
2023/06/09 01:16:23;;;;;;;17.38;7.95;;;18.70;99.90;;;19.03;68.45;101391.22;4933778;29;20067;-59
2023/06/09 01:18:53;;;;;;;17.65;7.70;;;18.70;99.90;;;19.05;68.41;101393.88;4935949;29;20477;-60
2023/06/09 01:21:32;;;;;;;15.93;7.03;;;18.70;99.90;;;19.04;68.17;101384.06;4935475;29;20085;-59
2023/06/09 01:24:14;;;;;;;16.95;7.43;;;18.70;99.90;;;19.07;68.30;101389.31;4933114;29;20062;-59
2023/06/09 01:26:45;;;;;;;14.50;7.72;;;18.70;99.90;;;18.99;68.16;101389.56;4935771;29;20192;-59
2023/06/09 01:29:15;;;;;;;;;;;18.70;99.90;;;19.00;68.23;101385.09;4932814;29;20071;-60
2023/06/09 01:31:44;;;;;;;16.60;7.60;;;18.60;99.90;;;18.99;68.33;101381.50;4935520;29;19923;-59
2023/06/09 01:34:14;;;;;;;16.73;7.38;;;18.60;99.90;;;18.98;68.22;101385.13;4935664;29;20044;-59
2023/06/09 01:36:44;;;;;;;19.58;7.07;;;18.60;99.90;;;18.98;68.50;101385.13;4935380;29;20098;-59
2023/06/09 01:39:13;;;;;;;15.68;7.72;;;18.60;99.90;;;18.72;68.39;101350.19;4926682;29;20054;-60
2023/06/09 01:41:41;;;;;;;14.18;7.28;;;18.50;99.90;;;18.88;68.38;101380.97;4935625;29;20055;-59
2023/06/09 01:44:12;;;;;;;13.20;6.95;;;18.50;99.90;;;18.83;68.65;101372.22;4935501;29;20094;-59
2023/06/09 01:46:42;;;;;;;15.48;7.70;;;18.40;99.90;;;18.78;68.64;101369.66;4935568;29;20078;-59
2023/06/09 01:49:17;;;;;;;16.42;7.53;;;18.40;99.90;;;18.69;68.81;101369.94;4932102;29;20050;-60
2023/06/09 01:51:51;;;;;;;16.08;7.20;;;18.40;99.90;;;18.76;69.05;101375.97;4935368;29;20102;-59
2023/06/09 01:54:28;;;;;;;15.23;6.97;;;18.40;99.90;;;18.65;69.25;101368.28;4935349;29;20082;-60
2023/06/09 01:57:04;;;;;;;13.18;7.45;;;18.30;99.90;;;18.65;69.67;101381.66;4931586;29;20048;-59
2023/06/09 01:59:43;;;;;;;13.63;7.50;;;18.30;99.90;;;18.58;69.67;101372.03;4935235;29;20055;-60
2023/06/09 02:02:13;;;;;;;18.70;7.75;;;18.30;99.90;;;18.40;69.78;101329.69;4942414;29;20086;-59
2023/06/09 02:04:43;;;;;;;;;;;18.30;99.90;;;18.50;70.21;101367.84;4931115;29;20078;-59
2023/06/09 02:07:16;;;;;;;18.07;7.63;;;18.20;99.90;;;18.58;70.29;101364.00;4935345;29;19922;-59
2023/06/09 02:09:45;;;;;;;19.20;8.18;;;18.20;99.90;;;18.62;70.23;101368.34;4942306;29;20475;-59
2023/06/09 02:12:14;;;;;;;19.05;7.90;;;18.20;99.90;;;18.61;70.17;101361.25;4935038;29;20052;-60
2023/06/09 02:14:44;;;;;;;19.50;8.10;;;18.30;99.90;;;18.64;70.22;101366.50;4942080;29;20056;-59
2023/06/09 02:17:13;;;;;;;23.48;8.15;;;18.30;99.90;;;18.42;70.26;101365.38;4935282;29;20044;-59
2023/06/09 02:19:41;;;;;;;16.90;7.75;;;18.20;99.90;;;18.43;70.71;101366.22;4933853;29;20040;-59
2023/06/09 02:22:10;;;;;;;18.38;7.40;;;18.10;99.90;;;18.49;70.51;101369.63;4914931;29;20052;-59
2023/06/09 02:24:38;;;;;;;14.52;7.32;;;18.10;99.90;;;18.37;70.91;101345.81;4935046;29;20047;-59
2023/06/09 02:27:07;;;;;;;17.27;7.97;;;18.00;99.90;;;18.43;70.79;101360.88;4926401;29;20417;-59
2023/06/09 02:29:36;;;;;;;16.02;7.78;;;18.00;99.90;;;18.50;70.98;101363.38;4933974;29;20454;-59
2023/06/09 02:32:07;;;;;;;15.60;7.78;;;18.10;99.90;;;18.52;70.80;101358.84;4935058;29;20062;-60
2023/06/09 02:34:37;;;;;;;17.13;7.63;;;18.10;99.90;;;18.48;70.93;101359.84;4933797;29;20058;-59
2023/06/09 02:37:09;;;;;;;18.77;8.23;;;18.10;99.90;;;18.47;70.53;101363.44;4935031;29;20036;-59
2023/06/09 02:39:38;;;;;;;12.77;7.30;;;18.10;99.90;;;18.38;70.81;101361.00;4931143;29;20107;-59
2023/06/09 02:42:07;;;;;;;12.60;6.95;;;18.10;99.90;;;18.39;70.96;101362.75;4931639;29;20043;-60
2023/06/09 02:44:37;;;;;;;15.20;7.50;;;18.10;99.90;;;18.38;70.58;101339.56;4935036;29;20131;-60
2023/06/09 02:47:08;;;;;;;20.33;8.25;;;18.10;99.90;;;18.32;70.87;101339.75;4934895;29;20131;-60
2023/06/09 02:49:36;;;;;;;15.77;7.22;;;18.00;99.90;;;18.29;70.82;101338.94;4926009;29;20408;-61
2023/06/09 02:52:05;;;;;;;14.88;7.97;;;17.90;99.90;;;18.29;70.97;101342.47;4933442;29;20111;-59
2023/06/09 02:54:40;;;;;;;17.17;7.85;;;17.90;99.90;;;18.11;70.66;101343.03;4922842;29;20176;-59
2023/06/09 02:57:10;;;;;;;13.85;7.53;;;17.80;99.90;;;18.17;71.13;101342.84;4946308;29;20059;-59
2023/06/09 02:59:39;;;;;;;19.90;7.85;;;17.80;99.90;;;18.12;70.86;101339.41;4933458;29;20051;-59
2023/06/09 03:02:11;;;;;;;17.73;7.80;;;17.80;99.90;;;18.07;70.84;101340.47;4933402;29;20051;-59
2023/06/09 03:04:40;;;;;;;14.88;8.32;;;17.80;99.90;;;17.98;70.82;101339.78;4933659;29;20051;-59
2023/06/09 03:07:13;;;;;;;19.30;8.68;;;17.60;99.90;;;18.08;70.71;101339.56;4926290;29;20043;-60
2023/06/09 03:09:42;;;;;;;16.42;7.40;;;17.70;99.90;;;18.00;70.11;101340.63;4933822;29;20136;-59
2023/06/09 03:12:11;;;;;;;15.32;7.53;;;17.60;99.90;;;17.85;69.85;101341.03;4946183;29;20055;-59
2023/06/09 03:14:40;;;;;;;13.73;7.43;;;17.60;99.90;;;17.87;69.98;101330.28;4937937;29;20063;-60
2023/06/09 03:17:10;;;;;;;16.77;8.52;;;17.50;99.90;;;17.84;69.59;101335.75;4936667;29;20477;-60
2023/06/09 03:19:40;;;;;;;16.15;7.80;;;17.50;99.90;;;17.71;69.97;101345.88;4936844;29;20059;-59
2023/06/09 03:22:08;;;;;;;14.13;7.60;;;17.40;99.90;;;17.64;69.41;101336.25;4937950;29;20455;-59
2023/06/09 03:24:39;;;;;;;19.80;8.68;;;17.40;99.90;;;17.70;69.26;101329.88;4938041;29;20044;-59
2023/06/09 03:27:08;;;;;;;15.07;7.40;;;17.40;99.90;;;17.68;69.05;101323.66;4928882;29;20060;-59
2023/06/09 03:29:37;;;;;;;15.10;7.70;;;17.40;99.90;;;17.64;69.20;101340.72;4933505;29;20435;-59
2023/06/09 03:32:07;;;;;;;15.30;7.35;;;17.30;99.90;;;17.70;69.09;101340.56;4933527;29;20052;-59
2023/06/09 03:34:40;;;;;;;16.13;7.63;;;17.40;99.90;;;17.72;68.94;101349.44;4936524;29;20052;-59
2023/06/09 03:37:12;;;;;;;16.15;7.70;;;17.40;99.90;;;17.68;68.63;101345.97;4944738;29;20106;-59
2023/06/09 03:39:41;;;;;;;14.95;7.65;;;17.40;99.90;;;17.63;68.97;101349.69;4936410;29;20063;-59
2023/06/09 03:42:11;;;;;;;13.90;7.43;;;17.30;99.90;;;17.48;69.28;101345.56;4944488;29;20051;-60
2023/06/09 03:44:39;;;;;;;17.55;7.80;;;17.20;99.90;;;17.43;69.28;101338.56;4933199;29;20051;-59
2023/06/09 03:47:09;;;;;;;13.43;7.30;;;17.20;99.90;;;17.51;69.25;101339.28;4933887;29;20055;-59
2023/06/09 03:49:40;;;;;;;15.60;7.82;;;17.10;99.90;;;17.55;68.77;101338.28;4933486;29;20391;-59
2023/06/09 03:52:09;;;;;;;15.50;7.82;;;17.20;99.90;;;16.97;68.74;101246.13;4937364;29;20043;-59
2023/06/09 03:54:38;;;;;;;14.35;7.65;;;17.20;99.90;;;17.39;68.73;101350.25;4936270;29;20048;-59
2023/06/09 03:57:07;;;;;;;17.00;7.43;;;17.10;99.90;;;17.42;68.59;101339.50;4936158;29;20143;-60
2023/06/09 03:59:36;;;;;;;13.13;8.10;;;17.10;99.90;;;17.56;68.39;101340.03;4936089;29;20056;-59
2023/06/09 04:02:05;;;;;;;12.35;7.82;;;17.20;99.90;;;17.56;67.49;101337.34;4935975;29;20050;-59
2023/06/09 04:04:34;;;;;;;22.13;8.57;;;17.20;99.90;;;17.54;67.41;101340.09;4937239;29;20555;-59
2023/06/09 04:07:05;;;;;;;17.10;7.33;;;17.20;99.90;;;17.60;67.06;101349.75;4932376;29;20039;-59
2023/06/09 04:09:35;;;;;;;11.25;6.70;;;17.20;99.90;;;17.62;66.67;101324.72;4937081;29;20430;-59
2023/06/09 04:12:05;;;;;;;15.02;7.55;;;17.30;99.90;;;17.68;66.19;101337.94;4937171;29;20078;-59
2023/06/09 04:14:34;;;;;;;14.20;7.45;;;17.30;99.90;;;17.55;65.40;101339.19;4935603;29;20090;-59
2023/06/09 04:17:03;;;;;;;16.33;8.07;;;17.30;99.90;;;17.61;65.34;101336.34;4935556;29;20082;-59
2023/06/09 04:19:31;;;;;;;15.43;8.32;;;17.30;99.90;;;17.61;64.45;101331.00;4935322;29;20056;-59
2023/06/09 04:22:07;;;;;;;13.93;8.07;;;17.30;99.90;;;17.41;64.70;101343.94;4935731;29;20055;-59
2023/06/09 04:24:35;;;;;;;14.63;7.75;;;17.10;99.90;;;17.44;64.66;101333.16;4924754;29;20054;-59
2023/06/09 04:27:07;;;;;;;16.02;7.30;;;17.10;99.90;;;17.40;65.00;101357.38;4935502;29;20047;-60
2023/06/09 04:29:36;;;;;;;15.68;7.22;;;17.10;99.90;;;17.13;65.36;101372.25;4935478;29;20143;-59
2023/06/09 04:32:07;;;;;;;19.27;9.00;;;16.90;99.90;;;17.30;65.42;101355.84;4943439;29;20079;-59
2023/06/09 04:34:39;;;;;;;13.00;7.28;;;16.90;99.90;;;17.27;65.25;101363.91;4935522;29;20047;-60
2023/06/09 04:37:12;;;;;;;14.57;7.05;;;16.90;99.90;;;17.13;65.05;101365.13;4924133;29;20063;-60
2023/06/09 04:39:45;;;;;;;15.93;7.95;;;16.90;99.90;;;16.94;65.71;101355.78;4927681;29;20047;-59
2023/06/09 04:42:19;;;;;;;12.57;7.85;;;16.70;99.90;;;17.09;66.22;101363.44;4935088;29;20134;-59
2023/06/09 04:44:50;;;;;;;15.02;7.85;;;16.70;99.90;;;17.12;66.21;101355.34;4927768;29;20150;-59
2023/06/09 04:47:24;;;;;;;13.07;7.68;;;16.80;99.90;;;17.02;66.36;101352.91;4932189;29;20086;-60
2023/06/09 04:49:53;;;;;;;15.00;7.93;;;16.70;99.90;;;16.53;67.76;101352.25;4935168;29;20138;-59
2023/06/09 04:52:24;;;;;;;16.58;8.73;;;16.50;99.90;;;16.64;67.97;101358.25;4936249;29;20051;-59
2023/06/09 04:54:52;;;;;;;15.25;8.00;;;16.30;99.90;;;16.79;68.38;101345.44;4934754;29;20058;-60
2023/06/09 04:57:28;;;;;;;15.10;7.20;;;16.40;99.90;;;16.84;68.10;101340.00;4927454;29;20449;-59
2023/06/09 05:00:03;;;;;;;18.40;8.27;;;16.60;99.90;;;16.75;68.18;101345.53;4935011;29;20054;-59
2023/06/09 05:02:33;;;;;;;15.68;7.97;;;16.50;99.90;;;17.00;68.70;101358.31;4933520;29;20083;-59
2023/06/09 05:05:02;;;;;;;15.47;8.30;;;16.60;99.90;;;16.58;69.12;101335.22;4934826;29;20075;-60
2023/06/09 05:07:34;;;;;;;17.65;8.63;;;16.40;99.90;;;16.95;69.08;101346.84;4935979;29;20047;-59
2023/06/09 05:10:05;;;;;;;15.07;8.05;;;16.60;99.90;;;17.14;68.84;101355.31;4935951;29;20047;-59
2023/06/09 05:12:34;;;;;;;16.38;8.45;;;16.70;99.90;;;16.95;68.96;101365.56;4934792;29;20075;-59
2023/06/09 05:15:03;;;;;;;20.08;9.48;;;16.70;99.90;;;16.88;69.30;101365.69;4923190;29;20107;-59
2023/06/09 05:17:33;;;;;;;22.35;8.85;;;16.60;99.90;;;16.95;69.47;101362.88;4935822;29;20063;-59
2023/06/09 05:20:02;;;;;;;17.52;8.32;;;16.70;99.90;;;16.65;70.63;101374.22;4934431;29;20142;-59
2023/06/09 05:22:32;;;;;;;17.30;8.18;;;16.40;99.90;;;16.96;70.59;101367.31;4942725;29;20506;-59
2023/06/09 05:25:02;;;;;;;17.10;8.93;;;16.60;99.90;;;17.12;69.89;101368.72;4935582;29;20070;-59
2023/06/09 05:27:30;;;;;;;16.10;8.55;;;16.80;99.90;;;17.04;70.08;101365.34;4926860;29;20055;-59
2023/06/09 05:30:00;;;;;;;18.80;8.75;;;16.80;99.90;;;17.20;70.04;101351.59;4933828;29;20114;-60
2023/06/09 05:32:29;;;;;;;16.60;8.83;;;16.90;99.90;;;17.37;69.94;101373.47;4923043;29;20056;-60
2023/06/09 05:34:58;;;;;;;16.30;8.95;;;17.00;99.90;;;17.35;70.27;101370.84;4930825;29;20056;-59
2023/06/09 05:37:26;;;;;;;19.05;9.25;;;17.00;99.90;;;17.49;69.77;101366.06;4934324;29;20047;-59
2023/06/09 05:39:56;;;;;;;17.90;8.95;;;17.10;99.90;;;17.48;70.50;101372.34;4942372;29;20051;-61
2023/06/09 05:42:25;;;;;;;17.20;8.90;;;17.20;99.90;;;17.59;69.82;101364.06;4933958;29;20055;-59
2023/06/09 05:44:53;;;;;;;16.75;9.20;;;17.30;99.90;;;17.41;69.75;101357.31;4935359;29;20091;-59
2023/06/09 05:47:22;;;;;;;17.80;9.20;;;17.30;99.90;;;17.66;69.24;101371.88;4935253;29;20055;-60
2023/06/09 05:49:50;;;;;;;17.50;8.93;;;17.40;99.90;;;17.71;69.56;101358.41;4935403;29;20050;-59
2023/06/09 05:52:19;;;;;;;16.20;8.57;;;17.30;99.90;;;17.69;69.25;101373.59;4935313;29;20059;-59
2023/06/09 05:54:47;;;;;;;17.33;9.35;;;17.40;99.90;;;17.44;70.45;101372.44;4935428;29;20051;-59
2023/06/09 05:57:18;;;;;;;19.83;9.52;;;17.20;99.90;;;17.60;70.27;101364.00;4935197;29;20040;-59
2023/06/09 05:59:47;;;;;;;16.05;9.50;;;17.20;99.90;;;17.74;69.87;101369.00;4932110;29;20118;-59
2023/06/09 06:02:15;;;;;;;21.02;9.93;;;17.40;99.90;;;17.71;69.80;101369.09;4934041;29;20043;-59
2023/06/09 06:04:44;;;;;;;19.75;9.95;;;17.40;99.90;;;17.84;69.98;101366.06;4935516;29;20079;-59
2023/06/09 06:07:14;;;;;;;20.92;9.80;;;17.50;99.90;;;17.89;69.83;101376.63;4935075;29;20062;-60
2023/06/09 06:09:42;;;;;;;19.10;9.45;;;17.60;99.90;;;17.28;71.50;101357.66;4935275;29;20051;-60
2023/06/09 06:12:11;;;;;;;17.38;10.07;;;17.10;99.90;;;17.22;73.01;101372.06;4934886;29;20553;-59
2023/06/09 06:14:41;;;;;;;19.02;9.88;;;16.90;99.90;;;16.90;74.13;101375.47;4934965;29;20143;-59
2023/06/09 06:17:09;;;;;;;20.33;10.38;;;16.60;99.90;;;17.29;73.85;101362.97;4934984;29;20062;-59
2023/06/09 06:19:38;;;;;;;16.63;10.48;;;16.80;99.90;;;17.48;73.27;101372.34;4931187;29;20044;-59
2023/06/09 06:22:06;;;;;;;24.77;10.50;;;17.00;99.90;;;17.64;72.67;101364.81;4935076;29;20126;-59
2023/06/09 06:24:35;;;;;;;21.48;10.63;;;17.20;99.90;;;17.82;72.77;101383.97;4934957;29;20050;-59
2023/06/09 06:27:04;;;;;;;24.15;10.35;;;17.40;99.90;;;18.12;71.72;101381.41;4934995;29;20127;-59
2023/06/09 06:29:33;;;;;;;23.00;9.80;;;17.70;99.90;;;18.19;70.73;101373.16;4934929;29;20437;-60
2023/06/09 06:32:04;;;;;;;24.60;11.52;;;17.90;99.90;;;18.46;70.38;101372.41;4934996;29;20058;-59
2023/06/09 06:34:33;;;;;;;20.00;9.75;;;18.00;99.90;;;17.92;71.21;101377.41;4934937;29;20091;-59
2023/06/09 06:37:01;;;;;;;24.17;9.98;;;17.70;99.90;;;18.19;72.25;101380.28;4934958;29;20048;-64
2023/06/09 06:39:30;;;;;;;21.58;10.32;;;17.70;99.90;;;18.63;71.32;101380.84;4934876;29;20418;-64
2023/06/09 06:41:58;;;;;;;27.67;11.13;;;18.20;99.90;;;18.74;69.87;101384.06;4932815;29;20044;-63
2023/06/09 06:44:34;;;;;;;21.88;10.60;;;18.40;99.90;;;18.66;70.19;101383.41;4938703;29;20119;-63
2023/06/09 06:47:04;;;;;;;25.38;10.85;;;18.40;99.90;;;18.89;69.71;101398.84;4945568;29;20051;-63
2023/06/09 06:49:33;;;;;;;;;;;18.50;99.90;;;19.10;69.75;101391.94;4938878;29;20138;-64
2023/06/09 06:52:01;;;;;;;26.42;11.68;;;18.70;99.90;;;19.27;68.83;101390.47;4938487;29;20340;-66
2023/06/09 06:54:29;;;;;;;28.55;11.52;;;18.90;99.90;;;19.29;68.68;101393.09;4938306;29;20055;-65
2023/06/09 06:57:00;;;;;;;25.38;11.02;;;19.00;99.90;;;19.45;68.59;101394.41;4945057;29;20052;-67
2023/06/09 06:59:29;;;;;;;23.50;10.40;;;19.00;99.90;;;19.50;68.65;101408.53;4934816;29;20048;-65
2023/06/09 07:01:57;;;;;;;24.52;11.05;;;19.20;99.90;;;19.73;68.94;101400.63;4938113;29;20052;-67
2023/06/09 07:04:27;;;;;;;21.15;10.98;;;19.30;99.90;;;19.94;67.83;101399.03;4938119;29;20131;-64
2023/06/09 07:06:56;;;;;;;20.92;10.35;;;19.50;99.90;;;20.10;67.11;101393.06;4938310;29;20091;-67
2023/06/09 07:09:24;;;;;;;29.52;10.80;;;19.70;99.90;;;20.14;66.84;101405.44;4937802;29;20048;-65
2023/06/09 07:11:53;;;;;;;24.65;10.95;;;19.80;99.90;;;20.36;66.86;101393.03;4936723;29;20449;-66
2023/06/09 07:14:22;;;;;;;20.83;10.45;;;20.00;99.90;;;19.88;67.15;101394.72;4937919;29;20130;-65
2023/06/09 07:16:50;;;;;;;27.40;12.13;;;19.70;99.90;;;19.91;67.95;101404.47;4936488;29;20501;-63
2023/06/09 07:19:19;;;;;;;22.80;11.55;;;19.60;99.90;;;20.21;66.99;101393.56;4937900;29;20154;-64
2023/06/09 07:21:48;;;;;;;18.13;11.02;;;19.80;99.90;;;20.06;67.36;101398.56;4934349;29;20469;-65
2023/06/09 07:24:17;;;;;;;25.58;12.13;;;19.80;99.90;;;20.39;67.10;101400.09;4937905;29;20409;-66
2023/06/09 07:26:45;;;;;;;23.10;11.68;;;19.90;99.90;;;20.38;66.19;101409.97;4937711;29;20458;-66
2023/06/09 07:29:19;;;;;;;24.33;11.57;;;20.10;99.90;;;19.99;68.59;101403.31;4937993;29;20147;-67
2023/06/09 07:31:52;;;;;;;19.38;11.45;;;19.60;99.90;;;20.43;67.40;101401.75;4937772;29;20040;-66
2023/06/09 07:34:20;;;;;;;20.60;11.70;;;19.90;99.90;;;20.74;66.68;101398.81;4933396;29;20055;-67
2023/06/09 07:36:50;;;;;;;18.98;11.13;;;20.30;99.90;;;20.94;66.09;101391.75;4937511;29;20048;-66
2023/06/09 07:39:19;;;;;;;21.13;12.27;;;20.60;99.90;;;20.87;65.76;101392.00;4917677;29;20459;-64
2023/06/09 07:41:48;;;;;;;19.33;11.68;;;20.60;99.90;;;21.08;65.39;101399.31;4937452;29;20063;-66
2023/06/09 07:44:17;;;;;;;18.52;11.93;;;20.70;99.90;;;21.05;64.94;101400.31;4937651;29;20050;-67
2023/06/09 07:46:45;;;;;;;22.98;12.95;;;20.80;99.90;;;20.80;66.04;101403.94;4937378;29;20052;-67
2023/06/09 07:49:14;;;;;;;23.08;12.77;;;20.60;99.90;;;20.32;66.81;101402.16;4936120;29;20048;-66
2023/06/09 07:51:46;;;;;;;20.52;11.88;;;20.10;99.90;;;20.40;68.43;101399.19;4937474;29;20130;-68
2023/06/09 07:54:15;;;;;;;;;;;20.00;99.90;;;20.42;68.03;101417.00;4932738;29;20080;-67
2023/06/09 07:56:48;;;;;;;23.83;12.20;;;20.00;99.90;;;20.20;68.24;101396.31;4937242;29;19930;-67
2023/06/09 07:59:18;;;;;;;24.80;13.32;;;19.90;99.90;;;20.19;69.01;101383.84;4934315;29;20055;-68
2023/06/09 08:01:46;;;;;;;24.60;13.38;;;19.90;99.90;;;20.73;68.25;101397.91;4937184;29;20102;-67
2023/06/09 08:04:16;;;;;;;26.77;13.27;;;20.20;99.90;;;20.66;67.30;101369.53;4935886;29;20497;-67
2023/06/09 08:06:46;;;;;;;31.10;14.07;;;20.40;99.90;;;21.04;67.33;101401.22;4937037;29;20059;-65
2023/06/09 08:09:16;;;;;;;21.25;14.00;;;20.60;99.90;;;21.18;67.40;101401.56;4944009;29;20075;-61
2023/06/09 08:11:44;;;;;;;25.67;13.27;;;20.80;99.90;;;21.40;68.12;101391.72;4932697;29;20079;-61
2023/06/09 08:14:13;;;;;;;25.88;13.82;;;20.90;99.90;;;21.38;66.06;101392.69;4936818;29;20154;-62
2023/06/09 08:16:41;;;;;;;28.52;13.65;;;21.00;99.90;;;21.67;66.44;101395.06;4940365;29;20056;-61
2023/06/09 08:19:10;;;;;;;26.90;12.52;;;21.20;99.90;;;21.63;65.72;101397.94;4936879;29;20402;-61
2023/06/09 08:21:42;;;;;;;26.48;12.45;;;21.30;99.90;;;21.30;68.15;101401.09;4936790;29;20055;-62
2023/06/09 08:24:11;;;;;;;25.30;13.50;;;20.90;99.90;;;21.76;66.38;101377.63;4936931;29;20058;-62
2023/06/09 08:26:43;;;;;;;24.90;12.95;;;21.30;99.90;;;22.21;65.16;101391.88;4936613;29;20062;-61
2023/06/09 08:29:12;;;;;;;29.10;14.45;;;21.80;99.90;;;22.30;64.13;101407.63;4936532;29;20118;-61
2023/06/09 08:31:41;;;;;;;40.90;14.23;;;21.90;99.90;;;21.58;66.85;101398.16;4936610;29;20048;-61
2023/06/09 08:34:09;;;;;;;24.10;13.32;;;21.40;99.90;;;21.94;64.98;101398.44;4932956;29;20052;-61
2023/06/09 08:36:38;;;;;;;21.20;14.02;;;21.60;99.90;;;21.83;65.44;101388.16;4936508;29;20048;-61
2023/06/09 08:39:06;;;;;;;25.20;14.13;;;21.50;99.90;;;21.67;67.47;101399.56;4936602;29;20051;-62
2023/06/09 08:41:41;;;;;;;28.42;14.45;;;21.40;99.90;;;22.09;67.60;101395.09;4935184;29;20083;-61
2023/06/09 08:44:09;;;;;;;28.70;13.80;;;21.50;99.90;;;22.08;65.21;101388.84;4936299;29;20048;-62
2023/06/09 08:46:40;;;;;;;29.40;14.02;;;21.70;99.90;;;22.33;66.04;101402.13;4936250;29;20107;-61
2023/06/09 08:49:08;;;;;;;;;;;21.90;99.90;;;22.72;64.67;101376.09;4936919;29;20055;-62
2023/06/09 08:51:38;;;;;;;31.35;12.95;;;22.30;99.90;;;23.20;64.03;101397.16;4932531;29;20403;-61
2023/06/09 08:54:07;;;;;;;25.20;13.52;;;22.80;99.90;;;23.38;63.97;101390.03;4933148;29;20051;-62
2023/06/09 08:56:35;;;;;;;24.83;13.82;;;23.00;99.90;;;23.12;63.33;101393.97;4936062;29;20149;-61
2023/06/09 08:59:06;;;;;;;23.63;12.90;;;22.90;99.90;;;23.21;61.86;101396.22;4936081;29;20044;-62
2023/06/09 09:01:36;;;;;;;25.98;13.32;;;23.00;99.90;;;23.29;62.51;101402.13;4936074;29;20048;-61
2023/06/09 09:04:05;;;;;;;24.35;13.63;;;23.00;99.90;;;22.76;65.78;101393.88;4935898;29;20043;-61
2023/06/09 09:06:37;;;;;;;22.93;14.60;;;22.50;99.90;;;23.03;65.35;101397.09;4935612;29;20043;-61
2023/06/09 09:09:05;;;;;;;26.10;13.25;;;22.60;99.90;;;23.66;63.96;101401.22;4935941;29;20062;-61
2023/06/09 09:11:34;;;;;;;25.60;14.25;;;23.10;99.90;;;23.15;63.02;101399.22;4932391;29;20071;-62
2023/06/09 09:14:12;;;;;;;24.55;14.93;;;23.00;99.90;;;23.44;62.40;101396.00;4934771;29;20052;-61
2023/06/09 09:16:41;;;;;;;26.60;14.00;;;23.00;99.90;;;23.75;61.50;101403.47;4936001;29;20059;-61
2023/06/09 09:19:09;;;;;;;20.88;13.20;;;23.30;99.90;;;24.01;61.14;101409.31;4935753;29;20048;-61
2023/06/09 09:21:38;;;;;;;21.55;14.05;;;23.60;99.90;;;24.03;61.31;101407.44;4935746;29;20047;-61
2023/06/09 09:24:10;;;;;;;23.13;15.27;;;23.60;99.90;;;23.69;61.30;101406.47;4935479;29;20155;-61
2023/06/09 09:26:40;;;;;;;25.95;14.73;;;23.50;99.90;;;23.19;62.58;101400.81;4935671;29;20498;-61
2023/06/09 09:29:11;;;;;;;22.48;13.98;;;23.00;99.90;;;23.86;62.50;101403.81;4935770;29;20114;-62
2023/06/09 09:31:41;;;;;;;26.48;15.57;;;23.30;99.90;;;23.11;61.51;101403.88;4935749;29;20074;-61
2023/06/09 09:34:12;;;;;;;26.23;14.35;;;22.90;99.90;;;23.60;64.27;101398.81;4934289;29;20146;-62
2023/06/09 09:36:45;;;;;;;20.90;13.20;;;23.00;99.90;;;24.10;63.09;101398.03;4935477;29;20783;-63
2023/06/09 09:39:15;;;;;;;23.02;14.15;;;23.60;99.90;;;24.32;62.19;101395.09;4935999;29;20051;-63
2023/06/09 09:42:02;;;;;;;21.40;13.77;;;23.80;99.90;;;24.51;60.72;101395.88;4935870;29;20103;-62
2023/06/09 09:44:38;;;;;;;24.48;13.75;;;24.00;99.90;;;24.73;59.65;101365.84;4931082;29;20429;-63
2023/06/09 09:47:13;;;;;;;25.20;14.55;;;24.50;99.90;;;24.66;60.74;101391.47;4933271;29;20047;-63
2023/06/09 09:49:51;;;;;;;20.20;12.40;;;24.30;99.90;;;25.09;59.75;101395.44;4935686;29;20122;-63
2023/06/09 09:52:27;;;;;;;23.67;14.05;;;24.60;99.90;;;25.39;57.55;101389.19;4931652;29;20054;-63
2023/06/09 09:55:00;;;;;;;19.65;12.77;;;25.00;99.90;;;25.63;57.90;101395.88;4935326;29;20493;-63
2023/06/09 09:57:31;;;;;;;18.83;12.75;;;25.20;99.90;;;25.89;57.23;101386.22;4926382;29;20051;-62
2023/06/09 10:00:07;;;;;;;20.50;13.93;;;25.60;99.90;;;25.91;56.38;101393.31;4935420;29;20468;-63
2023/06/09 10:02:43;;;;;;;21.35;13.63;;;25.70;99.90;;;25.88;57.25;101398.88;4932594;29;20059;-63
2023/06/09 10:05:14;;;;;;;20.42;13.30;;;25.50;99.90;;;26.28;56.43;101391.09;4933989;29;20426;-63
2023/06/09 10:07:46;;;;;;;22.05;15.00;;;25.80;99.90;;;26.02;55.68;101395.34;4935160;29;20075;-63
2023/06/09 10:10:15;;;;;;;22.70;11.75;;;25.90;99.90;;;26.40;56.19;101391.22;4935172;29;20047;-60
2023/06/09 10:12:44;;;;;;;23.38;14.30;;;26.00;99.90;;;26.28;53.94;101388.41;4931413;29;20047;-61
2023/06/09 10:15:15;;;;;;;20.33;14.43;;;26.20;99.90;;;25.89;55.05;101384.38;4935117;29;20449;-61
2023/06/09 10:17:44;;;;;;;;;;;25.70;99.90;;;26.31;54.81;101383.66;4938494;29;20052;-61